Time;durP1;ratioP1;P1;durP2;ratioP2;P2;SDS_P1;SDS_P2;PMS_P1;PMS_P2;Temp;Humidity;BMP_temperature;BMP_pressure;BME280_temperature;BME280_humidity;BME280_pressure;Samples;Min_cycle;Max_cycle;Signal;HPM_P1;HPM_P2
2021/03/18 00:00:53;;;;;;;20.60;6.35;;;-0.30;99.90;;;;;;4144589;28;20045;-74
2021/03/18 00:02:54;;;;;;;21.77;6.65;;;-0.30;99.90;;;;;;4146785;28;20029;-76
2021/03/18 00:04:54;;;;;;;20.48;6.65;;;-0.20;99.90;;;;;;4145258;28;20049;-75
2021/03/18 00:06:55;;;;;;;14.77;6.18;;;-0.20;99.90;;;;;;4146682;28;20030;-73
2021/03/18 00:08:56;;;;;;;15.45;5.95;;;-0.20;99.90;;;;;;4146240;28;20382;-76
2021/03/18 00:10:57;;;;;;;21.15;6.90;;;-0.20;99.90;;;;;;4142775;28;20057;-75
2021/03/18 00:12:59;;;;;;;21.10;7.25;;;-0.20;99.90;;;;;;4146795;28;20118;-74
2021/03/18 00:15:07;;;;;;;19.52;6.38;;;-0.20;99.90;;;;;;4144305;28;20277;-73
2021/03/18 00:17:08;;;;;;;17.23;6.50;;;-0.20;99.90;;;;;;4143533;28;20505;-73
2021/03/18 00:19:09;;;;;;;19.70;6.63;;;-0.20;99.90;;;;;;4144947;28;20104;-74
2021/03/18 00:21:11;;;;;;;19.23;6.53;;;-0.20;99.90;;;;;;4145418;28;20113;-74
2021/03/18 00:23:11;;;;;;;22.88;7.55;;;-0.10;99.90;;;;;;4140808;28;20034;-73
2021/03/18 00:25:15;;;;;;;17.30;7.38;;;-0.10;99.90;;;;;;4142915;28;20184;-73
2021/03/18 00:27:16;;;;;;;23.25;6.50;;;-0.10;99.90;;;;;;4143690;28;20030;-74
2021/03/18 00:29:16;;;;;;;18.30;6.75;;;-0.10;99.90;;;;;;4137568;28;20168;-74
2021/03/18 00:31:23;;;;;;;20.92;7.00;;;-0.10;99.90;;;;;;4143258;28;20034;-74
2021/03/18 00:33:25;;;;;;;18.83;7.22;;;-0.10;99.90;;;;;;4145528;28;20117;-74
2021/03/18 00:35:28;;;;;;;16.13;7.18;;;0.00;99.90;;;;;;4144567;28;20539;-73
2021/03/18 00:37:29;;;;;;;21.45;6.75;;;-0.10;99.90;;;;;;4144750;28;20034;-73
2021/03/18 00:39:30;;;;;;;22.67;7.20;;;-0.10;99.90;;;;;;4144972;28;20029;-75
2021/03/18 00:41:31;;;;;;;17.10;8.23;;;-0.20;99.90;;;;;;4146155;28;20056;-73
2021/03/18 00:43:31;;;;;;;20.45;7.82;;;-0.10;99.90;;;;;;4145805;28;20063;-74
2021/03/18 00:45:35;;;;;;;21.20;8.75;;;-0.10;99.90;;;;;;4141765;28;20082;-73
2021/03/18 00:47:35;;;;;;;;;;;0.00;99.90;;;;;;4144094;28;20619;-74
2021/03/18 00:49:36;;;;;;;21.98;7.90;;;0.00;99.90;;;;;;4139807;28;19914;-75
2021/03/18 00:51:36;;;;;;;18.42;8.85;;;0.00;99.90;;;;;;4141680;28;20037;-74
2021/03/18 00:53:43;;;;;;;27.05;8.18;;;0.00;99.90;;;;;;4143137;28;20452;-74
2021/03/18 00:55:44;;;;;;;22.23;7.78;;;0.00;99.90;;;;;;4144139;28;20037;-73
2021/03/18 00:57:44;;;;;;;17.00;8.27;;;0.00;99.90;;;;;;4139903;28;20030;-74
2021/03/18 00:59:45;;;;;;;24.85;8.95;;;-0.10;99.90;;;;;;4142790;28;20030;-74
2021/03/18 01:01:46;;;;;;;15.90;8.18;;;-0.10;99.90;;;;;;4145767;28;20105;-74
2021/03/18 01:03:46;;;;;;;21.77;7.53;;;-0.20;99.90;;;;;;4144267;28;20046;-73
2021/03/18 01:05:57;;;;;;;25.65;8.30;;;-0.20;99.90;;;;;;4142588;28;20487;-73
2021/03/18 01:07:59;;;;;;;18.95;8.15;;;-0.30;99.90;;;;;;4135304;28;20034;-74
2021/03/18 01:09:59;;;;;;;23.63;8.63;;;-0.30;99.90;;;;;;4144344;28;20041;-74
2021/03/18 01:12:00;;;;;;;24.40;7.72;;;-0.30;99.90;;;;;;4145367;28;20042;-73
2021/03/18 01:14:10;;;;;;;32.80;8.23;;;-0.30;99.90;;;;;;4143333;28;20065;-74
2021/03/18 01:16:13;;;;;;;15.00;6.90;;;-0.30;99.90;;;;;;4145139;28;20026;-73
2021/03/18 01:18:15;;;;;;;17.55;7.88;;;-0.30;99.90;;;;;;4143561;28;20034;-74
2021/03/18 01:20:17;;;;;;;17.55;7.63;;;-0.30;99.90;;;;;;4145360;28;20121;-73
2021/03/18 01:22:17;;;;;;;17.52;7.70;;;-0.20;99.90;;;;;;4137399;28;20034;-74
2021/03/18 01:24:19;;;;;;;20.55;8.02;;;-0.10;99.90;;;;;;4141404;28;20037;-74
2021/03/18 01:26:19;;;;;;;21.70;7.95;;;-0.10;99.90;;;;;;4144521;28;20030;-74
2021/03/18 01:28:20;;;;;;;19.50;7.40;;;-0.10;99.90;;;;;;4145028;28;20145;-74
2021/03/18 01:30:23;;;;;;;23.02;7.53;;;-0.20;99.90;;;;;;4143508;28;20034;-74
2021/03/18 01:32:23;;;;;;;22.70;8.23;;;-0.20;99.90;;;;;;4145324;28;20061;-74
2021/03/18 01:34:24;;;;;;;22.73;8.35;;;-0.30;99.90;;;;;;4142164;28;20084;-74
2021/03/18 01:36:26;;;;;;;16.80;6.57;;;-0.30;99.90;;;;;;4142056;28;20093;-74
2021/03/18 01:38:30;;;;;;;20.27;8.63;;;-0.30;99.90;;;;;;4157837;28;20041;-74
2021/03/18 01:40:32;;;;;;;20.70;9.10;;;-0.30;99.90;;;;;;4140681;28;20057;-74
2021/03/18 01:42:34;;;;;;;19.50;8.80;;;-0.30;99.90;;;;;;4141324;28;20061;-74
2021/03/18 01:44:34;;;;;;;17.23;7.57;;;-0.30;99.90;;;;;;4134967;28;20485;-74
2021/03/18 01:46:35;;;;;;;17.45;8.52;;;-0.30;99.90;;;;;;4134165;28;20191;-74
2021/03/18 01:48:36;;;;;;;19.42;8.10;;;-0.30;99.90;;;;;;4133149;28;20030;-74
2021/03/18 01:50:39;;;;;;;27.00;8.60;;;-0.30;99.90;;;;;;4143451;28;20026;-74
2021/03/18 01:52:40;;;;;;;27.40;8.77;;;-0.20;99.90;;;;;;4137712;28;20773;-74
2021/03/18 01:54:41;;;;;;;27.08;8.15;;;-0.20;99.90;;;;;;4145751;28;20034;-74
2021/03/18 01:56:41;;;;;;;21.88;8.63;;;-0.20;99.90;;;;;;4148334;28;20030;-74
2021/03/18 01:58:45;;;;;;;24.00;7.40;;;-0.20;99.90;;;;;;4144789;28;20876;-73
2021/03/18 02:00:49;;;;;;;18.50;7.40;;;-0.10;99.90;;;;;;4146557;28;20026;-73
2021/03/18 02:02:50;;;;;;;26.02;8.98;;;-0.10;99.90;;;;;;4137874;28;20034;-74
2021/03/18 02:04:50;;;;;;;18.48;7.85;;;-0.10;99.90;;;;;;4142260;28;20034;-73
2021/03/18 02:06:51;;;;;;;17.27;7.28;;;0.00;99.90;;;;;;4137780;28;20041;-73
2021/03/18 02:08:52;;;;;;;21.23;8.10;;;0.00;99.90;;;;;;4146899;28;20026;-73
2021/03/18 02:10:53;;;;;;;16.48;6.25;;;0.10;99.90;;;;;;4147991;28;20040;-73
2021/03/18 02:12:54;;;;;;;23.67;7.32;;;0.20;99.90;;;;;;4147764;28;20030;-72
2021/03/18 02:14:55;;;;;;;28.20;7.82;;;0.20;99.90;;;;;;4142637;28;20060;-73
2021/03/18 02:16:58;;;;;;;17.98;7.28;;;0.20;99.90;;;;;;4145553;28;20045;-74
2021/03/18 02:19:26;;;;;;;16.73;6.93;;;0.20;99.90;;;;;;4142972;28;20036;-73
2021/03/18 02:22:07;;;;;;;23.52;7.03;;;0.20;99.90;;;;;;4146351;28;20045;-74
2021/03/18 02:24:17;;;;;;;20.83;6.78;;;0.10;99.90;;;;;;4145818;28;20865;-74
2021/03/18 02:26:40;;;;;;;20.50;6.95;;;0.20;99.90;;;;;;4146136;28;20037;-73
2021/03/18 02:29:06;;;;;;;13.25;6.47;;;0.10;99.90;;;;;;4147764;28;20026;-74
2021/03/18 02:31:11;;;;;;;24.52;6.25;;;0.10;99.90;;;;;;4146300;28;20153;-74
2021/03/18 02:33:47;;;;;;;19.75;6.60;;;0.10;99.90;;;;;;4147479;28;20095;-73
2021/03/18 02:36:01;;;;;;;18.55;6.03;;;0.00;99.90;;;;;;4147695;28;20038;-73
2021/03/18 02:38:15;;;;;;;18.60;6.57;;;-0.10;99.90;;;;;;4144807;28;20037;-74
2021/03/18 02:40:20;;;;;;;13.73;5.50;;;-0.10;99.90;;;;;;4140983;28;20041;-74
2021/03/18 02:42:23;;;;;;;17.23;5.80;;;-0.10;99.90;;;;;;4147596;28;20137;-74
2021/03/18 02:44:27;;;;;;;23.42;7.28;;;-0.10;99.90;;;;;;4138536;28;20034;-74
2021/03/18 02:46:29;;;;;;;22.50;6.53;;;-0.10;99.90;;;;;;4146712;28;20225;-75
2021/03/18 02:48:33;;;;;;;16.95;5.68;;;0.00;99.90;;;;;;4147330;28;20061;-74
2021/03/18 02:50:36;;;;;;;22.90;6.88;;;0.00;99.90;;;;;;4147660;28;20037;-74
2021/03/18 02:52:40;;;;;;;19.52;5.80;;;0.10;99.90;;;;;;4147535;28;20040;-74
2021/03/18 02:54:43;;;;;;;18.95;6.30;;;0.00;99.90;;;;;;4147357;28;20118;-74
2021/03/18 02:56:46;;;;;;;19.08;6.25;;;0.00;99.90;;;;;;4140659;28;20559;-74
2021/03/18 02:58:51;;;;;;;24.23;6.25;;;0.00;99.90;;;;;;4147556;28;20037;-74
2021/03/18 03:00:56;;;;;;;15.82;5.60;;;0.00;99.90;;;;;;4144055;28;20073;-75
2021/03/18 03:02:57;;;;;;;19.50;6.65;;;0.10;99.90;;;;;;4139632;28;20473;-75
2021/03/18 03:04:58;;;;;;;13.73;5.75;;;0.00;99.90;;;;;;4146049;28;20077;-74
2021/03/18 03:06:59;;;;;;;21.40;6.15;;;0.10;99.90;;;;;;4145716;28;20519;-74
2021/03/18 03:09:04;;;;;;;19.27;5.88;;;0.00;99.90;;;;;;4147486;28;20029;-74
2021/03/18 03:11:05;;;;;;;14.93;5.40;;;-0.10;99.90;;;;;;4146916;28;20030;-74
2021/03/18 03:13:07;;;;;;;23.10;5.95;;;-0.10;99.90;;;;;;4147034;28;20049;-74
2021/03/18 03:15:10;;;;;;;13.90;5.82;;;-0.10;99.90;;;;;;4147317;28;20030;-75
2021/03/18 03:17:14;;;;;;;12.27;5.15;;;-0.20;99.90;;;;;;4145445;28;20041;-74
2021/03/18 03:19:15;;;;;;;15.38;5.63;;;-0.20;99.90;;;;;;4145856;28;20034;-74
2021/03/18 03:21:17;;;;;;;17.88;6.82;;;-0.20;99.90;;;;;;4140930;28;20065;-74
2021/03/18 03:23:19;;;;;;;27.98;6.25;;;-0.20;99.90;;;;;;4133918;28;20054;-74
2021/03/18 03:25:21;;;;;;;12.68;5.95;;;-0.20;99.90;;;;;;4145484;28;20104;-74
2021/03/18 03:27:23;;;;;;;15.60;5.63;;;-0.20;99.90;;;;;;4145609;28;20038;-74
2021/03/18 03:29:24;;;;;;;17.63;6.45;;;-0.30;99.90;;;;;;4139502;28;20475;-73
2021/03/18 03:31:26;;;;;;;15.57;5.60;;;-0.40;99.90;;;;;;4134853;28;20034;-74
2021/03/18 03:33:30;;;;;;;18.48;5.95;;;-0.30;99.90;;;;;;4144162;28;20029;-74
2021/03/18 03:35:31;;;;;;;23.13;6.38;;;-0.30;99.90;;;;;;4138522;28;20041;-74
2021/03/18 03:37:31;;;;;;;17.77;5.47;;;-0.30;99.90;;;;;;4141339;28;20371;-74
2021/03/18 03:39:33;;;;;;;15.95;5.68;;;-0.30;99.90;;;;;;4144962;28;20076;-74
2021/03/18 03:41:35;;;;;;;22.65;5.88;;;-0.30;99.90;;;;;;4147185;28;20034;-74
2021/03/18 03:43:36;;;;;;;19.33;5.82;;;-0.20;99.90;;;;;;4138389;28;20086;-74
2021/03/18 03:45:37;;;;;;;18.25;6.72;;;-0.20;99.90;;;;;;4142753;28;20029;-74
2021/03/18 03:47:38;;;;;;;14.02;5.57;;;-0.20;99.90;;;;;;4138423;28;20050;-74
2021/03/18 03:49:40;;;;;;;17.55;5.70;;;-0.20;99.90;;;;;;4144938;28;20047;-74
2021/03/18 03:51:43;;;;;;;17.50;6.60;;;-0.20;99.90;;;;;;4146299;28;20034;-74
2021/03/18 03:53:58;;;;;;;16.80;5.82;;;-0.20;99.90;;;;;;4140300;28;20033;-74
2021/03/18 03:56:03;;;;;;;17.85;6.93;;;-0.20;99.90;;;;;;4138772;28;20066;-74
2021/03/18 03:58:25;;;;;;;16.50;6.05;;;-0.10;99.90;;;;;;4141211;28;20034;-74
2021/03/18 04:00:28;;;;;;;18.95;6.15;;;-0.10;99.90;;;;;;4145225;28;20041;-74
2021/03/18 04:02:30;;;;;;;26.85;6.68;;;-0.20;99.90;;;;;;4142735;28;20033;-74
2021/03/18 04:04:39;;;;;;;13.45;6.13;;;-0.20;99.90;;;;;;4138399;28;20514;-74
2021/03/18 04:06:43;;;;;;;18.17;6.10;;;-0.30;99.90;;;;;;4138678;28;20420;-75
2021/03/18 04:08:45;;;;;;;14.38;6.38;;;-0.20;99.90;;;;;;4138485;28;20161;-74
2021/03/18 04:10:46;;;;;;;17.17;6.75;;;-0.20;99.90;;;;;;4147131;28;20026;-74
2021/03/18 04:12:47;;;;;;;24.92;6.65;;;-0.20;99.90;;;;;;4144849;28;20124;-73
2021/03/18 04:14:54;;;;;;;19.65;6.85;;;-0.10;99.90;;;;;;4144995;28;20034;-74
2021/03/18 04:16:59;;;;;;;18.00;6.75;;;0.00;99.90;;;;;;4142653;28;20138;-74
2021/03/18 04:19:01;;;;;;;27.10;7.18;;;0.00;99.90;;;;;;4159499;28;20113;-74
2021/03/18 04:21:05;;;;;;;17.73;7.50;;;0.20;99.90;;;;;;4144036;28;20040;-75
2021/03/18 04:23:08;;;;;;;20.38;7.50;;;0.30;99.90;;;;;;4140461;28;20042;-75
2021/03/18 04:25:12;;;;;;;24.60;7.95;;;0.40;99.90;;;;;;4145678;28;20049;-74
2021/03/18 04:27:13;;;;;;;22.05;9.00;;;0.50;99.90;;;;;;4145222;28;20041;-74
2021/03/18 04:29:15;;;;;;;24.75;7.95;;;0.60;99.90;;;;;;4139512;28;20042;-74
2021/03/18 04:31:16;;;;;;;29.63;8.23;;;0.70;99.90;;;;;;4143508;28;20026;-74
2021/03/18 04:33:17;;;;;;;25.77;7.35;;;0.80;99.90;;;;;;4143639;28;20400;-75
2021/03/18 04:35:18;;;;;;;16.60;7.22;;;0.80;99.90;;;;;;4140661;28;20042;-74
2021/03/18 04:37:20;;;;;;;26.08;8.77;;;0.90;99.90;;;;;;4136576;28;20038;-74
2021/03/18 04:39:21;;;;;;;23.85;8.38;;;1.00;99.90;;;;;;4143839;28;20524;-74
2021/03/18 04:41:22;;;;;;;26.38;10.23;;;1.00;99.90;;;;;;4145886;28;20045;-74
2021/03/18 04:43:24;;;;;;;23.98;7.80;;;1.10;99.90;;;;;;4143095;28;20049;-75
2021/03/18 04:45:26;;;;;;;28.63;9.38;;;1.10;99.90;;;;;;4144664;28;20030;-74
2021/03/18 04:47:28;;;;;;;22.67;8.95;;;1.10;99.90;;;;;;4145506;28;20033;-74
2021/03/18 04:49:29;;;;;;;26.42;8.95;;;1.20;99.90;;;;;;4143612;28;20121;-74
2021/03/18 04:51:31;;;;;;;26.70;8.68;;;1.20;99.90;;;;;;4143670;28;20481;-75
2021/03/18 04:53:32;;;;;;;26.13;8.50;;;1.20;99.90;;;;;;4143912;28;20088;-75
2021/03/18 04:55:32;;;;;;;28.65;9.88;;;1.30;99.90;;;;;;4139691;28;20425;-74
2021/03/18 04:57:37;;;;;;;20.70;9.68;;;1.30;99.90;;;;;;4133881;28;20509;-74
2021/03/18 04:59:40;;;;;;;24.98;10.70;;;1.30;99.90;;;;;;4145528;28;20032;-75
2021/03/18 05:01:50;;;;;;;28.98;9.23;;;1.30;99.90;;;;;;4142570;28;20110;-74
2021/03/18 05:03:52;;;;;;;31.02;8.98;;;1.40;99.90;;;;;;4145574;28;20175;-74
2021/03/18 05:05:55;;;;;;;28.25;10.70;;;1.40;99.90;;;;;;4145707;28;20084;-74
2021/03/18 05:07:57;;;;;;;39.50;11.07;;;1.30;99.90;;;;;;4144350;28;20125;-74
2021/03/18 05:09:58;;;;;;;27.45;8.85;;;1.30;99.90;;;;;;4145306;28;20076;-75
2021/03/18 05:12:00;;;;;;;30.48;9.93;;;1.40;99.90;;;;;;4145317;28;20470;-74
2021/03/18 05:14:01;;;;;;;27.55;9.95;;;1.40;99.90;;;;;;4142708;28;20041;-74
2021/03/18 05:16:03;;;;;;;34.20;11.10;;;1.40;99.90;;;;;;4138294;28;20101;-75
2021/03/18 05:18:05;;;;;;;26.52;9.95;;;1.50;99.90;;;;;;4145466;28;20034;-75
2021/03/18 05:20:08;;;;;;;31.50;10.68;;;1.50;99.90;;;;;;4145743;28;20486;-74
2021/03/18 05:22:09;;;;;;;;;;;1.60;99.90;;;;;;4140943;28;20033;-75
2021/03/18 05:24:14;;;;;;;30.58;9.82;;;1.60;99.90;;;;;;4137685;28;19996;-75
2021/03/18 05:26:14;;;;;;;30.48;10.45;;;1.60;99.90;;;;;;4143602;28;20540;-74
2021/03/18 05:28:16;;;;;;;31.48;11.27;;;1.60;99.90;;;;;;4145605;28;20043;-74
2021/03/18 05:30:17;;;;;;;32.22;11.40;;;1.60;99.90;;;;;;4140732;28;20034;-74
2021/03/18 05:32:18;;;;;;;35.50;10.95;;;1.60;99.90;;;;;;4142062;28;20415;-75
2021/03/18 05:34:19;;;;;;;41.92;14.50;;;1.60;99.90;;;;;;4139816;28;20109;-74
2021/03/18 05:36:20;;;;;;;39.75;12.07;;;1.50;99.90;;;;;;4142977;28;20037;-74
2021/03/18 05:38:21;;;;;;;37.22;12.48;;;1.50;99.90;;;;;;4141844;28;20053;-75
2021/03/18 05:40:22;;;;;;;31.95;11.25;;;1.50;99.90;;;;;;4144020;28;20370;-75
2021/03/18 05:42:23;;;;;;;32.97;13.00;;;1.50;99.90;;;;;;4133167;28;20226;-75
2021/03/18 05:44:24;;;;;;;44.88;12.77;;;1.60;99.90;;;;;;4136101;28;20117;-75
2021/03/18 05:46:25;;;;;;;38.63;13.43;;;1.70;99.90;;;;;;4138737;28;20038;-75
2021/03/18 05:48:27;;;;;;;34.28;14.13;;;1.70;99.90;;;;;;4138404;28;20166;-75
2021/03/18 05:50:28;;;;;;;38.22;13.77;;;1.80;99.90;;;;;;4142237;28;20030;-75
2021/03/18 05:52:29;;;;;;;32.35;12.73;;;;;;;;;;4136753;28;20037;-74
2021/03/18 05:54:31;;;;;;;40.58;13.68;;;1.90;99.90;;;;;;4147904;28;20034;-75
2021/03/18 05:56:33;;;;;;;36.90;13.75;;;2.00;99.90;;;;;;4141842;28;20106;-75
2021/03/18 05:58:34;;;;;;;41.90;12.82;;;2.10;99.90;;;;;;4142792;28;20101;-74
2021/03/18 06:00:36;;;;;;;48.53;14.73;;;2.10;99.90;;;;;;4134637;28;20034;-75
2021/03/18 06:02:38;;;;;;;39.35;14.60;;;2.10;99.90;;;;;;4140904;28;20045;-75
2021/03/18 06:04:39;;;;;;;34.47;14.10;;;2.10;99.90;;;;;;4138315;28;20034;-74
2021/03/18 06:06:43;;;;;;;42.50;14.68;;;2.10;99.90;;;;;;4139796;28;20092;-75
2021/03/18 06:08:44;;;;;;;39.40;14.75;;;2.10;99.90;;;;;;4143607;28;20018;-74
2021/03/18 06:10:45;;;;;;;45.05;14.88;;;2.10;99.90;;;;;;4144890;28;20507;-74
2021/03/18 06:12:48;;;;;;;40.60;14.10;;;2.10;99.90;;;;;;4145455;28;20073;-74
2021/03/18 06:14:49;;;;;;;;;;;2.10;99.90;;;;;;4139362;28;20038;-74
2021/03/18 06:16:51;;;;;;;34.40;13.80;;;2.10;99.90;;;;;;4140375;28;20613;-74
2021/03/18 06:18:52;;;;;;;38.30;14.90;;;2.20;99.90;;;;;;4142304;28;20151;-75
2021/03/18 06:20:54;;;;;;;39.30;15.38;;;2.20;99.90;;;;;;4138328;28;20030;-75
2021/03/18 06:22:56;;;;;;;52.47;15.63;;;2.20;99.90;;;;;;4138402;28;20471;-75
2021/03/18 06:24:57;;;;;;;44.40;17.10;;;2.30;99.90;;;;;;4137743;28;20066;-76
2021/03/18 06:26:58;;;;;;;43.70;15.50;;;2.30;99.90;;;;;;4139661;28;20480;-76
2021/03/18 06:28:58;;;;;;;40.78;16.10;;;2.30;99.90;;;;;;4144471;28;20110;-75
2021/03/18 06:31:00;;;;;;;45.90;17.27;;;2.40;99.90;;;;;;4143640;28;20034;-75
2021/03/18 06:33:19;;;;;;;43.45;17.38;;;2.40;99.90;;;;;;4143182;28;20034;-77
2021/03/18 06:35:29;;;;;;;40.28;16.77;;;2.50;99.90;;;;;;4139922;28;20033;-75
2021/03/18 06:37:35;;;;;;;42.42;17.02;;;2.50;99.90;;;;;;4140408;28;20030;-75
2021/03/18 06:39:35;;;;;;;52.00;17.33;;;2.50;99.90;;;;;;4145293;28;20038;-75
2021/03/18 06:41:41;;;;;;;52.67;20.60;;;2.60;99.90;;;;;;4146746;28;20473;-75
2021/03/18 06:43:43;;;;;;;49.83;19.02;;;2.60;99.90;;;;;;4144074;28;20053;-75
2021/03/18 06:45:44;;;;;;;51.25;19.42;;;2.60;99.90;;;;;;4146947;28;20033;-75
2021/03/18 06:47:51;;;;;;;49.85;19.25;;;2.60;99.90;;;;;;4146639;28;20448;-75
2021/03/18 06:50:02;;;;;;;58.53;20.38;;;2.60;99.90;;;;;;4143442;28;20072;-75
2021/03/18 06:52:05;;;;;;;51.63;18.02;;;2.70;99.90;;;;;;4146035;28;20400;-75
2021/03/18 06:54:33;;;;;;;43.92;21.52;;;2.60;99.90;;;;;;4135031;28;20106;-75
2021/03/18 06:56:34;;;;;;;59.72;21.25;;;2.70;99.90;;;;;;4145527;28;20069;-75
2021/03/18 06:58:35;;;;;;;57.65;21.73;;;2.80;99.90;;;;;;4142784;28;20034;-75
2021/03/18 07:00:36;;;;;;;50.75;23.63;;;2.80;99.90;;;;;;4144673;28;20030;-75
2021/03/18 07:02:41;;;;;;;57.53;24.63;;;2.90;99.90;;;;;;4141742;28;20026;-74
2021/03/18 07:04:43;;;;;;;60.75;25.35;;;3.00;99.90;;;;;;4144637;28;20033;-75
2021/03/18 07:06:51;;;;;;;65.07;30.15;;;3.00;99.90;;;;;;4132672;28;20437;-76
2021/03/18 07:09:06;;;;;;;62.10;26.88;;;3.10;99.90;;;;;;4138660;28;20081;-75
2021/03/18 07:11:16;;;;;;;60.47;27.15;;;3.30;99.90;;;;;;4144540;28;20064;-74
2021/03/18 07:13:22;;;;;;;56.72;28.30;;;3.40;99.90;;;;;;4158877;28;20033;-75
2021/03/18 07:15:23;;;;;;;66.13;29.77;;;3.50;99.90;;;;;;4137459;28;20037;-75
2021/03/18 07:17:30;;;;;;;60.97;28.73;;;3.50;99.90;;;;;;4144281;28;20034;-75
2021/03/18 07:19:31;;;;;;;44.38;26.35;;;3.60;99.90;;;;;;4146065;28;20034;-75
2021/03/18 07:21:37;;;;;;;48.35;25.75;;;3.60;99.90;;;;;;4137429;28;20042;-75
2021/03/18 07:23:47;;;;;;;50.67;27.35;;;3.70;99.90;;;;;;4144319;28;20541;-75
2021/03/18 07:25:47;;;;;;;53.03;26.65;;;3.70;99.90;;;;;;4136355;28;20037;-75
2021/03/18 07:27:54;;;;;;;49.22;25.20;;;3.80;99.90;;;;;;4141114;28;20038;-75
2021/03/18 07:29:55;;;;;;;62.25;31.80;;;3.80;99.90;;;;;;4141033;28;20441;-75
2021/03/18 07:31:57;;;;;;;59.83;29.38;;;3.90;99.90;;;;;;4147850;28;20038;-75
2021/03/18 07:33:58;;;;;;;60.95;30.45;;;3.90;99.90;;;;;;4135741;28;20456;-75
2021/03/18 07:36:01;;;;;;;65.75;30.75;;;4.00;99.90;;;;;;4142602;28;20421;-75
2021/03/18 07:38:03;;;;;;;61.83;29.60;;;4.10;99.90;;;;;;4140597;28;20061;-75
2021/03/18 07:40:04;;;;;;;56.33;28.42;;;4.10;99.90;;;;;;4144531;28;20089;-75
2021/03/18 07:42:07;;;;;;;55.13;24.95;;;4.20;99.90;;;;;;4139091;28;20034;-75
2021/03/18 07:44:08;;;;;;;47.15;21.15;;;4.20;99.90;;;;;;4135740;28;20443;-74
2021/03/18 07:46:13;;;;;;;50.70;25.63;;;4.30;99.90;;;;;;4142826;28;20382;-75
2021/03/18 07:48:17;;;;;;;47.70;22.42;;;4.40;99.90;;;;;;4142577;28;20040;-74
2021/03/18 07:50:46;;;;;;;41.50;18.70;;;4.50;99.90;;;;;;4140753;28;20025;-75
2021/03/18 07:52:48;;;;;;;49.05;22.02;;;4.50;99.90;;;;;;4140073;28;20041;-74
2021/03/18 07:54:51;;;;;;;40.33;22.70;;;4.70;99.90;;;;;;4143890;28;20038;-75
2021/03/18 07:56:53;;;;;;;45.90;22.70;;;4.70;99.90;;;;;;4146366;28;20037;-74
2021/03/18 07:58:54;;;;;;;57.75;24.77;;;4.80;99.90;;;;;;4142944;28;20042;-74
2021/03/18 08:00:55;;;;;;;51.28;22.23;;;4.80;99.90;;;;;;4140186;28;20473;-75
2021/03/18 08:03:21;;;;;;;46.80;21.77;;;4.80;99.90;;;;;;4144777;28;20030;-75
2021/03/18 08:05:41;;;;;;;45.33;18.58;;;4.80;99.90;;;;;;4140904;28;20941;-75
2021/03/18 08:07:45;;;;;;;41.58;20.17;;;4.80;99.90;;;;;;4139518;28;20148;-74
2021/03/18 08:09:51;;;;;;;43.88;17.80;;;4.80;99.90;;;;;;4140566;28;20138;-75
2021/03/18 08:11:52;;;;;;;44.25;20.08;;;4.90;99.90;;;;;;4143359;28;20030;-75
2021/03/18 08:14:08;;;;;;;50.05;22.80;;;5.10;99.90;;;;;;4135593;28;20426;-74
2021/03/18 08:16:30;;;;;;;46.33;20.95;;;5.10;99.90;;;;;;4132138;28;20058;-74
2021/03/18 08:18:33;;;;;;;40.65;18.60;;;5.20;99.90;;;;;;4142752;28;20030;-75
2021/03/18 08:20:40;;;;;;;42.67;19.58;;;5.30;99.90;;;;;;4135755;28;20643;-75
2021/03/18 08:22:43;;;;;;;47.13;18.90;;;5.50;99.90;;;;;;4138304;28;20099;-75
2021/03/18 08:24:44;;;;;;;44.85;17.42;;;5.60;99.90;;;;;;4136495;28;20030;-75
2021/03/18 08:26:52;;;;;;;53.83;21.10;;;5.60;99.90;;;;;;4144040;28;20423;-75
2021/03/18 08:28:57;;;;;;;41.60;17.67;;;5.60;99.90;;;;;;4139467;28;20045;-75
2021/03/18 08:30:58;;;;;;;53.47;18.40;;;5.80;99.90;;;;;;4153533;28;20041;-75
2021/03/18 08:32:59;;;;;;;45.78;18.38;;;5.80;99.90;;;;;;4140383;28;20045;-75
2021/03/18 08:35:02;;;;;;;44.40;17.58;;;5.90;99.90;;;;;;4136635;28;20160;-74
2021/03/18 08:37:03;;;;;;;39.67;19.33;;;5.90;99.90;;;;;;4141888;28;20060;-75
2021/03/18 08:39:08;;;;;;;48.35;18.10;;;6.00;99.90;;;;;;4143433;28;20037;-75
2021/03/18 08:41:09;;;;;;;40.95;16.85;;;6.10;99.90;;;;;;4143421;28;20084;-75
2021/03/18 08:43:10;;;;;;;40.72;17.48;;;6.20;99.90;;;;;;4142354;28;20029;-75
2021/03/18 08:45:31;;;;;;;35.22;16.42;;;6.30;99.90;;;;;;4139090;28;20046;-74
2021/03/18 08:47:40;;;;;;;42.33;15.45;;;6.40;99.90;;;;;;4132996;28;20029;-75
2021/03/18 08:49:44;;;;;;;35.25;15.50;;;6.60;99.90;;;;;;4142156;28;20065;-75
2021/03/18 08:51:47;;;;;;;36.90;14.18;;;6.70;99.90;;;;;;4142730;28;20480;-74
2021/03/18 08:53:48;;;;;;;44.15;14.55;;;6.80;99.90;;;;;;4139350;28;20125;-75
2021/03/18 08:55:49;;;;;;;39.60;14.85;;;6.90;99.90;;;;;;4145028;28;20100;-75
2021/03/18 08:57:58;;;;;;;53.63;15.82;;;7.00;99.90;;;;;;4141335;28;20029;-75
2021/03/18 09:00:19;;;;;;;38.58;14.88;;;7.10;99.90;;;;;;4145037;28;20026;-75
2021/03/18 09:02:34;;;;;;;46.95;15.48;;;7.10;99.90;;;;;;4140760;28;20105;-74
2021/03/18 09:04:42;;;;;;;30.52;11.98;;;7.20;99.90;;;;;;4141663;28;20042;-75
2021/03/18 09:06:47;;;;;;;39.35;11.50;;;7.10;99.90;;;;;;4142171;28;20037;-75
2021/03/18 09:08:49;;;;;;;34.47;12.05;;;7.30;99.90;;;;;;4139648;28;20019;-74
2021/03/18 09:10:50;;;;;;;33.20;11.65;;;7.20;99.90;;;;;;4140065;28;20058;-74
2021/03/18 09:12:59;;;;;;;30.83;11.20;;;7.20;99.90;;;;;;4143366;28;20034;-74
2021/03/18 09:15:09;;;;;;;34.20;10.73;;;7.30;99.90;;;;;;4138212;28;20478;-75
2021/03/18 09:17:13;;;;;;;38.28;11.05;;;7.30;99.90;;;;;;4142964;28;20117;-74
2021/03/18 09:19:13;;;;;;;37.85;10.57;;;7.50;99.90;;;;;;4143214;28;20030;-74
2021/03/18 09:21:16;;;;;;;33.90;10.50;;;7.60;99.90;;;;;;4141958;28;20034;-74
2021/03/18 09:23:22;;;;;;;19.98;9.93;;;7.50;99.90;;;;;;4142546;28;20133;-75
2021/03/18 09:25:26;;;;;;;31.88;11.45;;;7.70;99.90;;;;;;4144097;28;20389;-74
2021/03/18 09:27:52;;;;;;;32.65;10.55;;;7.80;99.90;;;;;;4138228;28;20033;-74
2021/03/18 09:29:53;;;;;;;33.92;11.63;;;7.90;99.90;;;;;;4148056;28;20037;-74
2021/03/18 09:32:03;;;;;;;42.88;12.27;;;8.00;99.90;;;;;;4138432;28;20037;-76
2021/03/18 09:34:05;;;;;;;27.55;9.32;;;8.10;99.90;;;;;;4142767;28;21025;-74
2021/03/18 09:36:19;;;;;;;32.88;9.82;;;8.20;99.90;;;;;;4137997;28;20037;-75
2021/03/18 09:38:23;;;;;;;30.58;9.85;;;8.40;99.90;;;;;;4136928;28;20030;-75
2021/03/18 09:40:33;;;;;;;36.75;9.30;;;8.40;99.90;;;;;;4139700;28;20362;-75
2021/03/18 09:42:34;;;;;;;35.33;10.25;;;8.50;99.90;;;;;;4138448;28;20092;-75
2021/03/18 09:44:36;;;;;;;37.85;9.95;;;8.60;99.90;;;;;;4137515;28;20087;-75
2021/03/18 09:46:39;;;;;;;37.63;8.98;;;8.60;99.90;;;;;;4140760;28;20390;-75
2021/03/18 09:48:40;;;;;;;30.15;8.93;;;8.60;99.90;;;;;;4140188;28;20076;-76
2021/03/18 09:50:41;;;;;;;45.38;11.50;;;8.40;99.90;;;;;;4142191;28;20034;-75
2021/03/18 09:52:41;;;;;;;30.50;8.00;;;8.30;99.90;;;;;;4140103;28;20038;-76
2021/03/18 09:54:42;;;;;;;26.42;9.20;;;8.20;99.90;;;;;;4134267;28;20037;-75
2021/03/18 09:56:45;;;;;;;36.50;8.73;;;8.10;99.90;;;;;;4142925;28;20501;-75
2021/03/18 09:58:46;;;;;;;29.55;9.45;;;8.00;99.90;;;;;;4143292;28;20683;-75
2021/03/18 10:00:47;;;;;;;28.08;10.43;;;8.00;99.90;;;;;;4143087;28;20474;-73
2021/03/18 10:02:48;;;;;;;35.88;9.98;;;7.90;99.90;;;;;;4144670;28;20060;-74
2021/03/18 10:04:48;;;;;;;28.88;8.85;;;7.90;99.90;;;;;;4143855;28;20042;-75
2021/03/18 10:06:56;;;;;;;26.17;8.80;;;7.80;99.90;;;;;;4141480;28;20038;-74
2021/03/18 10:09:16;;;;;;;39.60;10.15;;;7.80;99.90;;;;;;4141807;28;20037;-76
2021/03/18 10:11:17;;;;;;;32.78;9.30;;;7.70;99.90;;;;;;4152789;28;20026;-75
2021/03/18 10:13:17;;;;;;;36.28;8.80;;;7.80;99.90;;;;;;4147353;28;20041;-74
2021/03/18 10:15:19;;;;;;;26.90;11.85;;;7.90;99.90;;;;;;4147881;28;20572;-74
2021/03/18 10:17:27;;;;;;;24.35;8.50;;;8.10;99.90;;;;;;4145865;28;20034;-74
2021/03/18 10:19:30;;;;;;;30.20;8.45;;;8.00;99.90;;;;;;4146875;28;20033;-74
2021/03/18 10:21:32;;;;;;;22.55;7.63;;;8.00;99.90;;;;;;4143547;28;20045;-73
2021/03/18 10:23:34;;;;;;;32.38;8.52;;;8.10;99.90;;;;;;4141345;28;20042;-74
2021/03/18 10:25:37;;;;;;;26.05;8.85;;;8.20;99.90;;;;;;4145227;28;20048;-74
2021/03/18 10:27:40;;;;;;;24.83;8.60;;;8.20;99.90;;;;;;4144595;28;20041;-73
2021/03/18 10:29:43;;;;;;;46.22;9.65;;;8.20;99.90;;;;;;4141245;28;20049;-75
2021/03/18 10:31:43;;;;;;;26.20;7.70;;;8.40;99.90;;;;;;4144667;28;20045;-75
2021/03/18 10:33:44;;;;;;;21.77;10.10;;;8.60;99.90;;;;;;4139509;28;20030;-74
2021/03/18 10:35:58;;;;;;;30.05;10.43;;;9.20;99.90;;;;;;4145638;28;20049;-75
2021/03/18 10:37:59;;;;;;;30.80;7.28;;;10.10;99.90;;;;;;4141541;28;20030;-74
2021/03/18 10:40:10;;;;;;;21.20;8.27;;;;;;;;;;4153346;28;20033;-76